AAY1589 KHOU-KPVU
Flight info
| Callsign | AAY1589 |
|---|---|
| Flight time | 3h 12m |
| Altitude | 36000 |
| Route | STYCK8 DOLEY FUZ PNH ALS MTJ JNC J12 HELPR YMONT TAYTR3 |
| Aircraft | A320/M-SDE3FGHIRWY/LB1 |
Departure
| Time | 2026-04-26 16:03 |
|---|---|
| Airport | William P. Hobby Airport (KHOU) |
Arrival
| Time | 2026-04-26 19:16 |
|---|---|
| Airport | Provo Municipal Airport (KPVU) |
| Time | Latitude | Longitude | Altitude | Speed | Heading |
|---|---|---|---|---|---|
| 2026-04-26 15:22 | 29.65207 | -95.27453 | 47 ft | 0 kts | 335° |
| 2026-04-26 15:56 | 29.65206 | -95.27452 | 52 ft | 2 kts | 335° |
| 2026-04-26 15:56 | 29.65182 | -95.27440 | 51 ft | 4 kts | 339° |
| 2026-04-26 15:56 | 29.65157 | -95.27433 | 51 ft | 4 kts | 7° |
| 2026-04-26 15:57 | 29.65142 | -95.27440 | 47 ft | 1 kts | 69° |
| 2026-04-26 15:57 | 29.65142 | -95.27441 | 47 ft | 0 kts | 69° |
| 2026-04-26 16:00 | 29.65142 | -95.27440 | 52 ft | 0 kts | 69° |
| 2026-04-26 16:00 | 29.65146 | -95.27428 | 52 ft | 4 kts | 68° |
| 2026-04-26 16:00 | 29.65174 | -95.27383 | 49 ft | 9 kts | 46° |
| 2026-04-26 16:01 | 29.65229 | -95.27322 | 48 ft | 13 kts | 44° |
| 2026-04-26 16:01 | 29.65303 | -95.27241 | 49 ft | 16 kts | 44° |
| 2026-04-26 16:01 | 29.65393 | -95.27141 | 50 ft | 17 kts | 44° |
| 2026-04-26 16:01 | 29.65464 | -95.27062 | 49 ft | 12 kts | 44° |
| 2026-04-26 16:02 | 29.65481 | -95.26980 | 52 ft | 11 kts | 103° |
| 2026-04-26 16:02 | 29.65432 | -95.26908 | 52 ft | 11 kts | 136° |
| 2026-04-26 16:02 | 29.65367 | -95.26912 | 52 ft | 13 kts | 229° |
| 2026-04-26 16:02 | 29.65345 | -95.26942 | 52 ft | 19 kts | 229° |
| 2026-04-26 16:03 | 29.64853 | -95.27489 | 51 ft | 128 kts | 224° |
| 2026-04-26 16:03 | 29.64087 | -95.28323 | 384 ft | 158 kts | 218° |
| 2026-04-26 16:03 | 29.63252 | -95.29196 | 1080 ft | 168 kts | 222° |
| 2026-04-26 16:03 | 29.62357 | -95.30036 | 1963 ft | 170 kts | 205° |
| 2026-04-26 16:04 | 29.60737 | -95.30101 | 2409 ft | 196 kts | 157° |
| 2026-04-26 16:04 | 29.59928 | -95.29500 | 2538 ft | 216 kts | 137° |
| 2026-04-26 16:04 | 29.59147 | -95.27904 | 2858 ft | 248 kts | 106° |
| 2026-04-26 16:04 | 29.59181 | -95.25843 | 3317 ft | 272 kts | 75° |
| 2026-04-26 16:05 | 29.60046 | -95.23877 | 4092 ft | 280 kts | 59° |
| 2026-04-26 16:05 | 29.61138 | -95.21992 | 4859 ft | 286 kts | 57° |
| 2026-04-26 16:05 | 29.62339 | -95.20151 | 5629 ft | 292 kts | 46° |
| 2026-04-26 16:05 | 29.64028 | -95.18842 | 6351 ft | 296 kts | 19° |
| 2026-04-26 16:06 | 29.66039 | -95.18446 | 7075 ft | 294 kts | 354° |
| 2026-04-26 16:06 | 29.68001 | -95.18998 | 7824 ft | 291 kts | 333° |
| 2026-04-26 16:06 | 29.69849 | -95.19940 | 8652 ft | 290 kts | 333° |
| 2026-04-26 16:06 | 29.71691 | -95.20893 | 9435 ft | 291 kts | 333° |
| 2026-04-26 16:07 | 29.73543 | -95.21851 | 10185 ft | 292 kts | 333° |
| 2026-04-26 16:07 | 29.75454 | -95.22839 | 10467 ft | 312 kts | 333° |
| 2026-04-26 16:07 | 29.77506 | -95.23902 | 10644 ft | 334 kts | 333° |
| 2026-04-26 16:07 | 29.79626 | -95.24999 | 11127 ft | 342 kts | 333° |
| 2026-04-26 16:08 | 29.81845 | -95.26139 | 11767 ft | 346 kts | 334° |
| 2026-04-26 16:08 | 29.84055 | -95.27270 | 12445 ft | 350 kts | 334° |
| 2026-04-26 16:08 | 29.86291 | -95.28412 | 13104 ft | 353 kts | 334° |
| 2026-04-26 16:08 | 29.88547 | -95.29566 | 13756 ft | 356 kts | 333° |
| 2026-04-26 16:09 | 29.90820 | -95.30732 | 14362 ft | 359 kts | 334° |
| 2026-04-26 16:09 | 29.93103 | -95.31904 | 15000 ft | 360 kts | 333° |
| 2026-04-26 16:09 | 29.95390 | -95.33078 | 15663 ft | 360 kts | 333° |
| 2026-04-26 16:09 | 29.97675 | -95.34252 | 16361 ft | 359 kts | 333° |
| 2026-04-26 16:10 | 29.99954 | -95.35421 | 17042 ft | 359 kts | 333° |
| 2026-04-26 16:10 | 30.02235 | -95.36594 | 17722 ft | 359 kts | 332° |
| 2026-04-26 16:10 | 30.04515 | -95.37769 | 18366 ft | 359 kts | 332° |
| 2026-04-26 16:10 | 30.06801 | -95.38950 | 18888 ft | 361 kts | 332° |
| 2026-04-26 16:11 | 30.09105 | -95.40140 | 19380 ft | 364 kts | 332° |
| 2026-04-26 16:11 | 30.11417 | -95.41365 | 19880 ft | 367 kts | 331° |
| 2026-04-26 16:11 | 30.13725 | -95.42645 | 20374 ft | 369 kts | 330° |
| 2026-04-26 16:11 | 30.16041 | -95.43960 | 20862 ft | 373 kts | 330° |
| 2026-04-26 16:12 | 30.18342 | -95.45279 | 21336 ft | 376 kts | 329° |
| 2026-04-26 16:12 | 30.20696 | -95.46630 | 21820 ft | 379 kts | 330° |
| 2026-04-26 16:12 | 30.25470 | -95.49346 | 22777 ft | 386 kts | 330° |
| 2026-04-26 16:13 | 30.27890 | -95.50710 | 23221 ft | 389 kts | 330° |
| 2026-04-26 16:13 | 30.30336 | -95.52087 | 23634 ft | 393 kts | 330° |
| 2026-04-26 16:13 | 30.32802 | -95.53474 | 24019 ft | 395 kts | 330° |
| 2026-04-26 16:13 | 30.35278 | -95.54868 | 24411 ft | 396 kts | 330° |
| 2026-04-26 16:14 | 30.37760 | -95.56267 | 24800 ft | 398 kts | 329° |
| 2026-04-26 16:14 | 30.40252 | -95.57674 | 25178 ft | 399 kts | 329° |
| 2026-04-26 16:14 | 30.45251 | -95.60501 | 25931 ft | 401 kts | 329° |
| 2026-04-26 16:15 | 30.47764 | -95.61924 | 26294 ft | 402 kts | 329° |
| 2026-04-26 16:15 | 30.50282 | -95.63351 | 26596 ft | 404 kts | 329° |
| 2026-04-26 16:15 | 30.52807 | -95.64785 | 26885 ft | 405 kts | 329° |
| 2026-04-26 16:16 | 30.57915 | -95.67606 | 27581 ft | 408 kts | 330° |
| 2026-04-26 16:16 | 30.60504 | -95.68976 | 27937 ft | 410 kts | 330° |
| 2026-04-26 16:16 | 30.63107 | -95.70336 | 28254 ft | 411 kts | 330° |
| 2026-04-26 16:16 | 30.65720 | -95.71706 | 28536 ft | 413 kts | 329° |
| 2026-04-26 16:17 | 30.68341 | -95.73092 | 28828 ft | 415 kts | 329° |
| 2026-04-26 16:17 | 30.70967 | -95.74494 | 29123 ft | 416 kts | 329° |
| 2026-04-26 16:17 | 30.73594 | -95.75906 | 29414 ft | 417 kts | 329° |
| 2026-04-26 16:17 | 30.76232 | -95.77326 | 29689 ft | 418 kts | 329° |
| 2026-04-26 16:18 | 30.78875 | -95.78746 | 29928 ft | 420 kts | 329° |
| 2026-04-26 16:18 | 30.84192 | -95.81602 | 30409 ft | 422 kts | 329° |
| 2026-04-26 16:19 | 30.89504 | -95.84458 | 31000 ft | 419 kts | 329° |
| 2026-04-26 16:19 | 30.92147 | -95.85878 | 31293 ft | 418 kts | 328° |
| 2026-04-26 16:19 | 30.96529 | -95.88236 | 31788 ft | 417 kts | 328° |
| 2026-04-26 16:20 | 31.00041 | -95.90130 | 32174 ft | 415 kts | 328° |
| 2026-04-26 16:20 | 31.05282 | -95.92949 | 32768 ft | 414 kts | 328° |
| 2026-04-26 16:20 | 31.07894 | -95.94353 | 33049 ft | 413 kts | 328° |
| 2026-04-26 16:21 | 31.10498 | -95.95759 | 33345 ft | 412 kts | 328° |
| 2026-04-26 16:21 | 31.13138 | -95.97078 | 33674 ft | 416 kts | 334° |
| 2026-04-26 16:21 | 31.15884 | -95.98143 | 33935 ft | 415 kts | 334° |
| 2026-04-26 16:21 | 31.18625 | -95.99202 | 34217 ft | 414 kts | 334° |
| 2026-04-26 16:22 | 31.21357 | -96.00258 | 34482 ft | 413 kts | 334° |
| 2026-04-26 16:22 | 31.24079 | -96.01310 | 34742 ft | 411 kts | 334° |
| 2026-04-26 16:22 | 31.26791 | -96.02359 | 34981 ft | 410 kts | 333° |
| 2026-04-26 16:22 | 31.29493 | -96.03407 | 35231 ft | 409 kts | 333° |
| 2026-04-26 16:23 | 31.32189 | -96.04456 | 35461 ft | 407 kts | 333° |
| 2026-04-26 16:23 | 31.34872 | -96.05500 | 35689 ft | 406 kts | 333° |
| 2026-04-26 16:23 | 31.40218 | -96.07578 | 35823 ft | 404 kts | 333° |
| 2026-04-26 16:24 | 31.45547 | -96.09653 | 35808 ft | 404 kts | 333° |
| 2026-04-26 16:24 | 31.50841 | -96.11719 | 35822 ft | 404 kts | 333° |
| 2026-04-26 16:25 | 31.56172 | -96.13801 | 35821 ft | 404 kts | 333° |
| 2026-04-26 16:25 | 31.61503 | -96.15883 | 35837 ft | 404 kts | 333° |
| 2026-04-26 16:26 | 31.65966 | -96.17627 | 35887 ft | 404 kts | 333° |
| 2026-04-26 16:26 | 31.72166 | -96.20051 | 35889 ft | 404 kts | 333° |
| 2026-04-26 16:27 | 31.77500 | -96.22143 | 35885 ft | 404 kts | 333° |
| 2026-04-26 16:27 | 31.82834 | -96.24248 | 35892 ft | 404 kts | 333° |
| 2026-04-26 16:28 | 31.88169 | -96.26347 | 35905 ft | 404 kts | 333° |
| 2026-04-26 16:28 | 31.93512 | -96.28442 | 35937 ft | 405 kts | 333° |
| 2026-04-26 16:29 | 31.98853 | -96.30544 | 35932 ft | 405 kts | 333° |
| 2026-04-26 16:29 | 32.04199 | -96.32652 | 35927 ft | 405 kts | 333° |
| 2026-04-26 16:30 | 32.09545 | -96.34763 | 35932 ft | 405 kts | 333° |
| 2026-04-26 16:30 | 32.14892 | -96.36874 | 35919 ft | 405 kts | 333° |
| 2026-04-26 16:31 | 32.19843 | -96.39726 | 35931 ft | 389 kts | 317° |
| 2026-04-26 16:31 | 32.23813 | -96.43966 | 35907 ft | 385 kts | 311° |
| 2026-04-26 16:32 | 32.27058 | -96.47629 | 35908 ft | 385 kts | 310° |
| 2026-04-26 16:32 | 32.31564 | -96.52697 | 35900 ft | 385 kts | 310° |
| 2026-04-26 16:33 | 32.35442 | -96.57062 | 35892 ft | 385 kts | 310° |
| 2026-04-26 16:33 | 32.39312 | -96.61428 | 35894 ft | 384 kts | 310° |
| 2026-04-26 16:34 | 32.43182 | -96.65797 | 35899 ft | 384 kts | 310° |
| 2026-04-26 16:34 | 32.47046 | -96.70169 | 35914 ft | 384 kts | 310° |
| 2026-04-26 16:35 | 32.50913 | -96.74552 | 35908 ft | 385 kts | 310° |
| 2026-04-26 16:35 | 32.54779 | -96.78942 | 35905 ft | 385 kts | 310° |
| 2026-04-26 16:36 | 32.58653 | -96.83331 | 35881 ft | 385 kts | 310° |
| 2026-04-26 16:36 | 32.62520 | -96.87730 | 35887 ft | 385 kts | 310° |
| 2026-04-26 16:37 | 32.66383 | -96.92132 | 35889 ft | 385 kts | 310° |
| 2026-04-26 16:37 | 32.69595 | -96.95788 | 35918 ft | 385 kts | 310° |
| 2026-04-26 16:38 | 32.74100 | -97.00937 | 35929 ft | 385 kts | 310° |
| 2026-04-26 16:38 | 32.77965 | -97.05347 | 35918 ft | 385 kts | 310° |
| 2026-04-26 16:39 | 32.81824 | -97.09767 | 35866 ft | 385 kts | 309° |
| 2026-04-26 16:39 | 32.85680 | -97.14194 | 35865 ft | 385 kts | 309° |
| 2026-04-26 16:40 | 32.89380 | -97.18770 | 35859 ft | 379 kts | 301° |
| 2026-04-26 16:40 | 32.92277 | -97.23973 | 35868 ft | 377 kts | 298° |
| 2026-04-26 16:41 | 32.95148 | -97.29199 | 35890 ft | 377 kts | 298° |
| 2026-04-26 16:41 | 32.98028 | -97.34427 | 35881 ft | 378 kts | 298° |
| 2026-04-26 16:42 | 33.00903 | -97.39664 | 35869 ft | 378 kts | 298° |
| 2026-04-26 16:42 | 33.03776 | -97.44913 | 35863 ft | 378 kts | 298° |
| 2026-04-26 16:43 | 33.06651 | -97.50165 | 35847 ft | 378 kts | 298° |
| 2026-04-26 16:43 | 33.09527 | -97.55415 | 35854 ft | 378 kts | 298° |
| 2026-04-26 16:44 | 33.12399 | -97.60671 | 35886 ft | 378 kts | 297° |
| 2026-04-26 16:44 | 33.15255 | -97.65912 | 35889 ft | 376 kts | 297° |
| 2026-04-26 16:45 | 33.18098 | -97.71137 | 35896 ft | 375 kts | 297° |
| 2026-04-26 16:45 | 33.20934 | -97.76349 | 35899 ft | 374 kts | 297° |
| 2026-04-26 16:46 | 33.23763 | -97.81556 | 35892 ft | 374 kts | 297° |
| 2026-04-26 16:46 | 33.26107 | -97.85886 | 35890 ft | 373 kts | 297° |
| 2026-04-26 16:47 | 33.28929 | -97.91094 | 35875 ft | 373 kts | 297° |
| 2026-04-26 16:47 | 33.31746 | -97.96301 | 35853 ft | 373 kts | 297° |
| 2026-04-26 16:48 | 33.34559 | -98.01513 | 35837 ft | 373 kts | 297° |
| 2026-04-26 16:48 | 33.37370 | -98.06722 | 35812 ft | 373 kts | 297° |
| 2026-04-26 16:49 | 33.40175 | -98.11934 | 35789 ft | 373 kts | 297° |
| 2026-04-26 16:49 | 33.42980 | -98.17151 | 35808 ft | 373 kts | 297° |
| 2026-04-26 16:50 | 33.45766 | -98.22336 | 35788 ft | 373 kts | 297° |
| 2026-04-26 16:50 | 33.48566 | -98.27566 | 35779 ft | 373 kts | 297° |
| 2026-04-26 16:51 | 33.51372 | -98.32800 | 35778 ft | 373 kts | 297° |
| 2026-04-26 16:51 | 33.54174 | -98.38040 | 35764 ft | 373 kts | 297° |
| 2026-04-26 16:52 | 33.56518 | -98.42434 | 35764 ft | 374 kts | 297° |
| 2026-04-26 16:52 | 33.59769 | -98.48542 | 35766 ft | 374 kts | 297° |
| 2026-04-26 16:53 | 33.62564 | -98.53797 | 35765 ft | 374 kts | 297° |
| 2026-04-26 16:53 | 33.65363 | -98.59051 | 35765 ft | 374 kts | 297° |
| 2026-04-26 16:54 | 33.68164 | -98.64311 | 35782 ft | 374 kts | 297° |
| 2026-04-26 16:54 | 33.70956 | -98.69585 | 35767 ft | 374 kts | 297° |
| 2026-04-26 16:55 | 33.73749 | -98.74869 | 35756 ft | 375 kts | 296° |
| 2026-04-26 16:55 | 33.76544 | -98.80160 | 35774 ft | 375 kts | 296° |
| 2026-04-26 16:56 | 33.80735 | -98.88111 | 35751 ft | 375 kts | 296° |
| 2026-04-26 16:57 | 33.83529 | -98.93416 | 35743 ft | 375 kts | 296° |
| 2026-04-26 16:57 | 33.87718 | -99.01376 | 35740 ft | 375 kts | 296° |
| 2026-04-26 16:58 | 33.90033 | -99.05793 | 35758 ft | 375 kts | 296° |
| 2026-04-26 16:59 | 33.94687 | -99.14679 | 35730 ft | 376 kts | 296° |
| 2026-04-26 17:00 | 34.00263 | -99.25356 | 35721 ft | 377 kts | 296° |
| 2026-04-26 17:00 | 34.04427 | -99.33344 | 35723 ft | 377 kts | 296° |
| 2026-04-26 17:01 | 34.07212 | -99.38698 | 35724 ft | 377 kts | 296° |
| 2026-04-26 17:01 | 34.09994 | -99.44058 | 35729 ft | 377 kts | 296° |
| 2026-04-26 17:02 | 34.12774 | -99.49422 | 35765 ft | 377 kts | 296° |
| 2026-04-26 17:02 | 34.15554 | -99.54789 | 35752 ft | 377 kts | 296° |
| 2026-04-26 17:03 | 34.18326 | -99.60157 | 35741 ft | 377 kts | 296° |
| 2026-04-26 17:03 | 34.21096 | -99.65528 | 35738 ft | 377 kts | 296° |
| 2026-04-26 17:04 | 34.23866 | -99.70899 | 35729 ft | 377 kts | 296° |
| 2026-04-26 17:04 | 34.26633 | -99.76271 | 35725 ft | 377 kts | 296° |
| 2026-04-26 17:05 | 34.29402 | -99.81648 | 35732 ft | 376 kts | 296° |
| 2026-04-26 17:05 | 34.32160 | -99.87030 | 35727 ft | 376 kts | 295° |
| 2026-04-26 17:06 | 34.34908 | -99.92423 | 35766 ft | 376 kts | 295° |
| 2026-04-26 17:06 | 34.37668 | -99.97811 | 35776 ft | 377 kts | 295° |
| 2026-04-26 17:07 | 34.40425 | -100.03206 | 35799 ft | 377 kts | 295° |
| 2026-04-26 17:07 | 34.43179 | -100.08606 | 35816 ft | 377 kts | 295° |
| 2026-04-26 17:08 | 34.45931 | -100.14010 | 35732 ft | 377 kts | 295° |
| 2026-04-26 17:08 | 34.48683 | -100.19415 | 35732 ft | 377 kts | 295° |
| 2026-04-26 17:09 | 34.50963 | -100.23908 | 35732 ft | 376 kts | 295° |
| 2026-04-26 17:09 | 34.54163 | -100.30233 | 35741 ft | 376 kts | 295° |
| 2026-04-26 17:10 | 34.56903 | -100.35645 | 35777 ft | 376 kts | 295° |
| 2026-04-26 17:10 | 34.59639 | -100.41050 | 35771 ft | 376 kts | 295° |
| 2026-04-26 17:11 | 34.62373 | -100.46457 | 35772 ft | 375 kts | 295° |
| 2026-04-26 17:11 | 34.65092 | -100.51867 | 35765 ft | 375 kts | 295° |
| 2026-04-26 17:12 | 34.69150 | -100.59946 | 35769 ft | 375 kts | 295° |
| 2026-04-26 17:13 | 34.73219 | -100.68061 | 35762 ft | 375 kts | 295° |
| 2026-04-26 17:14 | 34.77283 | -100.76175 | 35803 ft | 374 kts | 294° |
| 2026-04-26 17:14 | 34.81343 | -100.84294 | 35784 ft | 374 kts | 294° |
| 2026-04-26 17:15 | 34.85389 | -100.92411 | 35777 ft | 374 kts | 294° |
| 2026-04-26 17:16 | 34.88075 | -100.97830 | 35779 ft | 374 kts | 294° |
| 2026-04-26 17:16 | 34.90755 | -101.03248 | 35771 ft | 373 kts | 294° |
| 2026-04-26 17:17 | 34.93441 | -101.08657 | 35791 ft | 373 kts | 294° |
| 2026-04-26 17:17 | 34.96122 | -101.14067 | 35770 ft | 373 kts | 294° |
| 2026-04-26 17:18 | 34.98795 | -101.19486 | 35789 ft | 373 kts | 294° |
| 2026-04-26 17:18 | 35.01470 | -101.24911 | 35780 ft | 373 kts | 294° |
| 2026-04-26 17:19 | 35.05486 | -101.33053 | 35787 ft | 373 kts | 294° |
| 2026-04-26 17:19 | 35.08153 | -101.38483 | 35783 ft | 373 kts | 294° |
| 2026-04-26 17:20 | 35.09918 | -101.42076 | 35781 ft | 373 kts | 294° |
| 2026-04-26 17:20 | 35.13477 | -101.49341 | 35774 ft | 372 kts | 293° |
| 2026-04-26 17:21 | 35.16109 | -101.54738 | 35891 ft | 372 kts | 293° |
| 2026-04-26 17:21 | 35.18764 | -101.60170 | 35915 ft | 372 kts | 293° |
| 2026-04-26 17:22 | 35.21420 | -101.65604 | 35940 ft | 372 kts | 293° |
| 2026-04-26 17:22 | 35.24074 | -101.71040 | 35937 ft | 373 kts | 294° |
| 2026-04-26 17:23 | 35.26915 | -101.76369 | 35930 ft | 375 kts | 296° |
| 2026-04-26 17:23 | 35.29860 | -101.81640 | 35909 ft | 375 kts | 296° |
| 2026-04-26 17:24 | 35.32777 | -101.86926 | 35878 ft | 374 kts | 295° |
| 2026-04-26 17:24 | 35.35656 | -101.92238 | 35851 ft | 374 kts | 295° |
| 2026-04-26 17:25 | 35.38523 | -101.97560 | 35830 ft | 374 kts | 295° |
| 2026-04-26 17:25 | 35.41390 | -102.02881 | 35805 ft | 374 kts | 295° |
| 2026-04-26 17:26 | 35.44257 | -102.08202 | 35790 ft | 374 kts | 295° |
| 2026-04-26 17:26 | 35.47127 | -102.13522 | 35797 ft | 374 kts | 295° |
| 2026-04-26 17:27 | 35.49995 | -102.18842 | 35797 ft | 374 kts | 295° |
| 2026-04-26 17:27 | 35.52859 | -102.24173 | 35800 ft | 374 kts | 295° |
| 2026-04-26 17:28 | 35.55709 | -102.29507 | 35794 ft | 374 kts | 295° |
| 2026-04-26 17:28 | 35.58568 | -102.34843 | 35791 ft | 374 kts | 295° |
| 2026-04-26 17:29 | 35.60480 | -102.38415 | 35802 ft | 374 kts | 295° |
| 2026-04-26 17:29 | 35.64275 | -102.45529 | 35816 ft | 374 kts | 294° |
| 2026-04-26 17:30 | 35.67131 | -102.50883 | 35803 ft | 374 kts | 294° |
| 2026-04-26 17:30 | 35.69985 | -102.56240 | 35804 ft | 374 kts | 294° |
| 2026-04-26 17:31 | 35.72831 | -102.61605 | 35801 ft | 374 kts | 294° |
| 2026-04-26 17:31 | 35.75677 | -102.66974 | 35798 ft | 375 kts | 294° |
| 2026-04-26 17:32 | 35.78526 | -102.72346 | 35793 ft | 375 kts | 294° |
| 2026-04-26 17:32 | 35.81370 | -102.77725 | 35797 ft | 374 kts | 294° |
| 2026-04-26 17:33 | 35.84208 | -102.83105 | 35815 ft | 375 kts | 294° |
| 2026-04-26 17:34 | 35.87989 | -102.90280 | 35809 ft | 375 kts | 293° |
| 2026-04-26 17:34 | 35.90825 | -102.95673 | 35788 ft | 375 kts | 293° |
| 2026-04-26 17:35 | 35.93662 | -103.01078 | 35779 ft | 375 kts | 293° |
| 2026-04-26 17:35 | 35.96495 | -103.06485 | 35767 ft | 375 kts | 293° |
| 2026-04-26 17:36 | 35.99327 | -103.11893 | 35766 ft | 375 kts | 293° |
| 2026-04-26 17:36 | 36.02159 | -103.17308 | 35815 ft | 375 kts | 293° |
| 2026-04-26 17:37 | 36.04983 | -103.22724 | 35789 ft | 375 kts | 292° |
| 2026-04-26 17:37 | 36.07807 | -103.28147 | 35778 ft | 375 kts | 292° |
| 2026-04-26 17:38 | 36.12046 | -103.36284 | 35752 ft | 375 kts | 293° |
| 2026-04-26 17:38 | 36.14866 | -103.41713 | 35746 ft | 375 kts | 292° |
| 2026-04-26 17:39 | 36.17681 | -103.47148 | 35746 ft | 375 kts | 292° |
| 2026-04-26 17:39 | 36.20491 | -103.52586 | 35757 ft | 375 kts | 292° |
| 2026-04-26 17:40 | 36.22825 | -103.57108 | 35772 ft | 375 kts | 292° |
| 2026-04-26 17:40 | 36.26107 | -103.63477 | 35738 ft | 375 kts | 292° |
| 2026-04-26 17:41 | 36.28914 | -103.68928 | 35724 ft | 375 kts | 292° |
| 2026-04-26 17:41 | 36.31717 | -103.74389 | 35718 ft | 375 kts | 292° |
| 2026-04-26 17:42 | 36.34521 | -103.79849 | 35698 ft | 375 kts | 292° |
| 2026-04-26 17:42 | 36.37327 | -103.85310 | 35696 ft | 375 kts | 292° |
| 2026-04-26 17:43 | 36.40122 | -103.90774 | 35726 ft | 375 kts | 292° |
| 2026-04-26 17:43 | 36.42914 | -103.96233 | 35695 ft | 374 kts | 292° |
| 2026-04-26 17:44 | 36.45697 | -104.01682 | 35683 ft | 373 kts | 292° |
| 2026-04-26 17:44 | 36.48465 | -104.07134 | 35677 ft | 373 kts | 291° |
| 2026-04-26 17:45 | 36.51243 | -104.12601 | 35662 ft | 374 kts | 291° |
| 2026-04-26 17:45 | 36.54022 | -104.18068 | 35657 ft | 374 kts | 292° |
| 2026-04-26 17:46 | 36.56776 | -104.23505 | 35719 ft | 374 kts | 291° |
| 2026-04-26 17:46 | 36.59544 | -104.28985 | 35759 ft | 374 kts | 291° |
| 2026-04-26 17:47 | 36.61862 | -104.33578 | 35818 ft | 374 kts | 291° |
| 2026-04-26 17:47 | 36.65080 | -104.39964 | 35845 ft | 375 kts | 291° |
| 2026-04-26 17:48 | 36.67852 | -104.45467 | 35869 ft | 375 kts | 291° |
| 2026-04-26 17:48 | 36.70618 | -104.50980 | 35852 ft | 375 kts | 291° |
| 2026-04-26 17:49 | 36.73377 | -104.56496 | 35862 ft | 375 kts | 291° |
| 2026-04-26 17:49 | 36.76149 | -104.62012 | 35859 ft | 375 kts | 291° |
| 2026-04-26 17:50 | 36.78909 | -104.67519 | 35825 ft | 376 kts | 291° |
| 2026-04-26 17:50 | 36.81667 | -104.73063 | 35784 ft | 376 kts | 291° |
| 2026-04-26 17:51 | 36.84437 | -104.78618 | 35745 ft | 377 kts | 291° |
| 2026-04-26 17:51 | 36.87202 | -104.84175 | 35702 ft | 377 kts | 291° |
| 2026-04-26 17:52 | 36.89967 | -104.89734 | 35662 ft | 377 kts | 291° |
| 2026-04-26 17:52 | 36.92732 | -104.95302 | 35681 ft | 377 kts | 291° |
| 2026-04-26 17:53 | 36.95501 | -105.00886 | 35693 ft | 379 kts | 291° |
| 2026-04-26 17:54 | 36.99658 | -105.09295 | 35724 ft | 379 kts | 291° |
| 2026-04-26 17:54 | 37.02426 | -105.14934 | 35707 ft | 381 kts | 291° |
| 2026-04-26 17:55 | 37.05217 | -105.20607 | 35706 ft | 383 kts | 292° |
| 2026-04-26 17:55 | 37.08017 | -105.26285 | 35713 ft | 384 kts | 291° |
| 2026-04-26 17:56 | 37.10794 | -105.31946 | 35780 ft | 383 kts | 291° |
| 2026-04-26 17:57 | 37.16347 | -105.43293 | 35758 ft | 381 kts | 291° |
| 2026-04-26 17:57 | 37.19109 | -105.48964 | 35771 ft | 381 kts | 291° |
| 2026-04-26 17:58 | 37.24643 | -105.60342 | 35734 ft | 382 kts | 291° |
| 2026-04-26 17:59 | 37.28802 | -105.68898 | 35817 ft | 383 kts | 291° |
| 2026-04-26 17:59 | 37.31567 | -105.74615 | 35851 ft | 383 kts | 291° |
| 2026-04-26 18:00 | 37.34327 | -105.80341 | 35883 ft | 383 kts | 291° |
| 2026-04-26 18:00 | 37.37264 | -105.85974 | 35890 ft | 388 kts | 295° |
| 2026-04-26 18:01 | 37.40475 | -105.91458 | 35897 ft | 390 kts | 296° |
| 2026-04-26 18:01 | 37.42094 | -105.94192 | 35696 ft | 390 kts | 296° |
| 2026-04-26 18:01 | 37.43700 | -105.96937 | 35692 ft | 389 kts | 296° |
| 2026-04-26 18:02 | 37.46339 | -106.01519 | 35675 ft | 389 kts | 296° |
| 2026-04-26 18:02 | 37.50026 | -106.08009 | 35733 ft | 390 kts | 295° |
| 2026-04-26 18:03 | 37.53183 | -106.13585 | 35782 ft | 391 kts | 295° |
| 2026-04-26 18:03 | 37.56350 | -106.19176 | 35850 ft | 393 kts | 296° |
| 2026-04-26 18:04 | 37.59526 | -106.24784 | 35888 ft | 393 kts | 296° |
| 2026-04-26 18:05 | 37.64300 | -106.33221 | 35923 ft | 394 kts | 296° |
| 2026-04-26 18:05 | 37.67479 | -106.38858 | 35927 ft | 394 kts | 296° |
| 2026-04-26 18:06 | 37.70668 | -106.44516 | 35922 ft | 396 kts | 296° |
| 2026-04-26 18:06 | 37.73857 | -106.50197 | 35907 ft | 397 kts | 296° |
| 2026-04-26 18:07 | 37.77050 | -106.55905 | 35863 ft | 398 kts | 296° |
| 2026-04-26 18:07 | 37.80247 | -106.61630 | 35824 ft | 399 kts | 296° |
| 2026-04-26 18:08 | 37.83435 | -106.67327 | 35793 ft | 400 kts | 296° |
| 2026-04-26 18:08 | 37.86511 | -106.73204 | 35795 ft | 396 kts | 291° |
| 2026-04-26 18:09 | 37.89040 | -106.79350 | 35763 ft | 393 kts | 288° |
| 2026-04-26 18:09 | 37.91463 | -106.85564 | 35750 ft | 395 kts | 288° |
| 2026-04-26 18:10 | 37.93690 | -106.91892 | 35747 ft | 390 kts | 282° |
| 2026-04-26 18:10 | 37.95319 | -106.97475 | 35735 ft | 392 kts | 283° |
| 2026-04-26 18:11 | 37.97235 | -107.03943 | 35727 ft | 392 kts | 283° |
| 2026-04-26 18:11 | 37.99165 | -107.10418 | 35746 ft | 394 kts | 283° |
| 2026-04-26 18:12 | 38.01100 | -107.16883 | 35742 ft | 395 kts | 283° |
| 2026-04-26 18:12 | 38.02815 | -107.23467 | 35741 ft | 391 kts | 278° |
| 2026-04-26 18:13 | 38.04242 | -107.30139 | 35748 ft | 392 kts | 278° |
| 2026-04-26 18:13 | 38.05806 | -107.36782 | 35745 ft | 401 kts | 289° |
| 2026-04-26 18:14 | 38.09038 | -107.42743 | 35761 ft | 414 kts | 298° |
| 2026-04-26 18:14 | 38.12530 | -107.48580 | 35749 ft | 418 kts | 301° |
| 2026-04-26 18:14 | 38.14714 | -107.51121 | 35736 ft | 438 kts | 318° |
| 2026-04-26 18:15 | 38.17479 | -107.52908 | 35735 ft | 451 kts | 327° |
| 2026-04-26 18:15 | 38.23304 | -107.55964 | 35736 ft | 454 kts | 328° |
| 2026-04-26 18:16 | 38.29141 | -107.59030 | 35749 ft | 454 kts | 328° |
| 2026-04-26 18:16 | 38.34794 | -107.62437 | 35748 ft | 438 kts | 315° |
| 2026-04-26 18:16 | 38.37029 | -107.64951 | 35761 ft | 422 kts | 302° |
| 2026-04-26 18:17 | 38.40362 | -107.70927 | 35756 ft | 413 kts | 296° |
| 2026-04-26 18:17 | 38.43619 | -107.76958 | 35772 ft | 413 kts | 297° |
| 2026-04-26 18:18 | 38.46899 | -107.82988 | 35893 ft | 414 kts | 297° |
| 2026-04-26 18:18 | 38.50172 | -107.89042 | 35878 ft | 415 kts | 297° |
| 2026-04-26 18:19 | 38.53631 | -107.94987 | 35874 ft | 419 kts | 301° |
| 2026-04-26 18:19 | 38.56705 | -107.99790 | 35867 ft | 420 kts | 301° |
| 2026-04-26 18:20 | 38.60426 | -108.05560 | 35831 ft | 420 kts | 301° |
| 2026-04-26 18:20 | 38.63501 | -108.10435 | 35816 ft | 421 kts | 301° |
| 2026-04-26 18:21 | 38.67738 | -108.17250 | 35837 ft | 421 kts | 300° |
| 2026-04-26 18:21 | 38.71384 | -108.23132 | 35822 ft | 422 kts | 300° |
| 2026-04-26 18:22 | 38.75046 | -108.29018 | 35804 ft | 422 kts | 301° |
| 2026-04-26 18:22 | 38.78704 | -108.34913 | 35777 ft | 423 kts | 301° |
| 2026-04-26 18:23 | 38.82357 | -108.40838 | 35737 ft | 424 kts | 301° |
| 2026-04-26 18:23 | 38.86018 | -108.46780 | 35734 ft | 425 kts | 301° |
| 2026-04-26 18:24 | 38.89684 | -108.52725 | 35736 ft | 425 kts | 301° |
| 2026-04-26 18:24 | 38.93349 | -108.58674 | 35747 ft | 425 kts | 301° |
| 2026-04-26 18:25 | 38.97013 | -108.64635 | 35758 ft | 425 kts | 301° |
| 2026-04-26 18:25 | 39.00672 | -108.70616 | 35747 ft | 426 kts | 301° |
| 2026-04-26 18:26 | 39.04335 | -108.76609 | 35635 ft | 426 kts | 301° |
| 2026-04-26 18:26 | 39.07459 | -108.82967 | 35649 ft | 417 kts | 291° |
| 2026-04-26 18:27 | 39.10137 | -108.89595 | 35635 ft | 417 kts | 291° |
| 2026-04-26 18:27 | 39.12833 | -108.96219 | 35635 ft | 418 kts | 291° |
| 2026-04-26 18:28 | 39.15523 | -109.02851 | 35632 ft | 418 kts | 291° |
| 2026-04-26 18:28 | 39.18192 | -109.09491 | 35630 ft | 417 kts | 291° |
| 2026-04-26 18:29 | 39.20857 | -109.16141 | 35629 ft | 418 kts | 291° |
| 2026-04-26 18:29 | 39.23528 | -109.22802 | 35623 ft | 418 kts | 291° |
| 2026-04-26 18:30 | 39.26204 | -109.29467 | 35626 ft | 418 kts | 291° |
| 2026-04-26 18:30 | 39.28869 | -109.36149 | 35637 ft | 419 kts | 291° |
| 2026-04-26 18:31 | 39.31536 | -109.42846 | 35630 ft | 420 kts | 291° |
| 2026-04-26 18:31 | 39.34209 | -109.49558 | 35628 ft | 420 kts | 291° |
| 2026-04-26 18:32 | 39.36880 | -109.56269 | 34917 ft | 420 kts | 291° |
| 2026-04-26 18:32 | 39.38216 | -109.59638 | 34177 ft | 422 kts | 291° |
| 2026-04-26 18:32 | 39.39555 | -109.63022 | 33480 ft | 423 kts | 291° |
| 2026-04-26 18:33 | 39.40885 | -109.66391 | 32876 ft | 419 kts | 291° |
| 2026-04-26 18:33 | 39.42186 | -109.69688 | 32470 ft | 417 kts | 291° |
| 2026-04-26 18:33 | 39.43501 | -109.73030 | 32176 ft | 418 kts | 292° |
| 2026-04-26 18:33 | 39.44820 | -109.76388 | 31865 ft | 419 kts | 292° |
| 2026-04-26 18:34 | 39.46136 | -109.79739 | 31558 ft | 418 kts | 292° |
| 2026-04-26 18:34 | 39.47451 | -109.83082 | 31252 ft | 415 kts | 292° |
| 2026-04-26 18:34 | 39.48761 | -109.86407 | 30954 ft | 414 kts | 293° |
| 2026-04-26 18:34 | 39.50066 | -109.89717 | 30663 ft | 412 kts | 292° |
| 2026-04-26 18:35 | 39.51363 | -109.93012 | 30372 ft | 410 kts | 292° |
| 2026-04-26 18:35 | 39.52651 | -109.96298 | 30075 ft | 409 kts | 293° |
| 2026-04-26 18:35 | 39.53930 | -109.99578 | 29790 ft | 408 kts | 291° |
| 2026-04-26 18:35 | 39.55203 | -110.02851 | 29461 ft | 406 kts | 293° |
| 2026-04-26 18:36 | 39.56471 | -110.06111 | 29110 ft | 404 kts | 294° |
| 2026-04-26 18:36 | 39.57735 | -110.09351 | 28780 ft | 402 kts | 294° |
| 2026-04-26 18:36 | 39.59001 | -110.12600 | 28447 ft | 405 kts | 293° |
| 2026-04-26 18:36 | 39.60274 | -110.15867 | 28125 ft | 406 kts | 294° |
| 2026-04-26 18:37 | 39.61542 | -110.19136 | 27798 ft | 406 kts | 293° |
| 2026-04-26 18:37 | 39.62806 | -110.22395 | 27479 ft | 403 kts | 293° |
| 2026-04-26 18:37 | 39.64060 | -110.25632 | 27165 ft | 401 kts | 294° |
| 2026-04-26 18:37 | 39.65306 | -110.28851 | 26842 ft | 398 kts | 294° |
| 2026-04-26 18:38 | 39.66546 | -110.32052 | 26530 ft | 396 kts | 294° |
| 2026-04-26 18:38 | 39.67781 | -110.35241 | 26231 ft | 393 kts | 295° |
| 2026-04-26 18:38 | 39.69002 | -110.38402 | 25924 ft | 391 kts | 293° |
| 2026-04-26 18:38 | 39.70217 | -110.41550 | 25560 ft | 388 kts | 294° |
| 2026-04-26 18:39 | 39.71420 | -110.44674 | 25152 ft | 385 kts | 293° |
| 2026-04-26 18:39 | 39.72608 | -110.47770 | 24735 ft | 382 kts | 293° |
| 2026-04-26 18:39 | 39.73791 | -110.50849 | 24317 ft | 380 kts | 294° |
| 2026-04-26 18:39 | 39.74969 | -110.53913 | 23925 ft | 377 kts | 293° |
| 2026-04-26 18:40 | 39.75869 | -110.57066 | 23528 ft | 369 kts | 277° |
| 2026-04-26 18:40 | 39.75953 | -110.60351 | 23084 ft | 363 kts | 263° |
| 2026-04-26 18:40 | 39.75719 | -110.63604 | 22702 ft | 359 kts | 262° |
| 2026-04-26 18:40 | 39.75466 | -110.66817 | 22187 ft | 357 kts | 262° |
| 2026-04-26 18:41 | 39.75205 | -110.70010 | 21699 ft | 355 kts | 262° |
| 2026-04-26 18:41 | 39.74978 | -110.73188 | 21290 ft | 352 kts | 268° |
| 2026-04-26 18:41 | 39.75347 | -110.76321 | 20903 ft | 355 kts | 287° |
| 2026-04-26 18:41 | 39.76361 | -110.79237 | 20568 ft | 353 kts | 293° |
| 2026-04-26 18:42 | 39.77433 | -110.82105 | 20129 ft | 352 kts | 293° |
| 2026-04-26 18:42 | 39.78515 | -110.84956 | 19635 ft | 352 kts | 294° |
| 2026-04-26 18:42 | 39.79602 | -110.87797 | 19180 ft | 350 kts | 294° |
| 2026-04-26 18:42 | 39.80680 | -110.90619 | 18740 ft | 347 kts | 294° |
| 2026-04-26 18:43 | 39.81751 | -110.93426 | 18320 ft | 345 kts | 293° |
| 2026-04-26 18:43 | 39.82811 | -110.96214 | 17902 ft | 343 kts | 293° |
| 2026-04-26 18:43 | 39.83857 | -110.98974 | 17519 ft | 338 kts | 292° |
| 2026-04-26 18:43 | 39.84885 | -111.01694 | 17171 ft | 332 kts | 292° |
| 2026-04-26 18:44 | 39.85895 | -111.04383 | 16741 ft | 329 kts | 293° |
| 2026-04-26 18:44 | 39.86897 | -111.07057 | 16293 ft | 328 kts | 292° |
| 2026-04-26 18:44 | 39.87893 | -111.09715 | 15907 ft | 325 kts | 293° |
| 2026-04-26 18:44 | 39.88881 | -111.12356 | 15518 ft | 324 kts | 292° |
| 2026-04-26 18:45 | 39.89863 | -111.14981 | 15126 ft | 322 kts | 293° |
| 2026-04-26 18:45 | 39.90845 | -111.17603 | 14698 ft | 323 kts | 292° |
| 2026-04-26 18:45 | 39.91822 | -111.20214 | 14372 ft | 319 kts | 292° |
| 2026-04-26 18:45 | 39.92792 | -111.22808 | 13979 ft | 317 kts | 292° |
| 2026-04-26 18:46 | 39.93752 | -111.25379 | 13617 ft | 314 kts | 291° |
| 2026-04-26 18:46 | 39.94702 | -111.27925 | 13191 ft | 311 kts | 291° |
| 2026-04-26 18:46 | 39.95647 | -111.30461 | 12934 ft | 311 kts | 292° |
| 2026-04-26 18:46 | 39.96592 | -111.32995 | 12939 ft | 311 kts | 292° |
| 2026-04-26 18:47 | 39.97538 | -111.35533 | 12948 ft | 311 kts | 292° |
| 2026-04-26 18:47 | 39.98481 | -111.38069 | 12943 ft | 310 kts | 292° |
| 2026-04-26 18:47 | 39.99413 | -111.40580 | 12932 ft | 302 kts | 292° |
| 2026-04-26 18:47 | 40.00309 | -111.42992 | 12930 ft | 289 kts | 292° |
| 2026-04-26 18:48 | 40.01167 | -111.45304 | 12931 ft | 277 kts | 292° |
| 2026-04-26 18:48 | 40.01990 | -111.47533 | 12933 ft | 270 kts | 291° |
| 2026-04-26 18:48 | 40.02797 | -111.49742 | 12932 ft | 269 kts | 289° |
| 2026-04-26 18:48 | 40.03333 | -111.52053 | 12933 ft | 265 kts | 280° |
| 2026-04-26 18:49 | 40.03766 | -111.54396 | 12918 ft | 266 kts | 281° |
| 2026-04-26 18:49 | 40.04207 | -111.56749 | 12913 ft | 267 kts | 281° |
| 2026-04-26 18:49 | 40.04651 | -111.59092 | 12922 ft | 265 kts | 281° |
| 2026-04-26 18:49 | 40.05089 | -111.61425 | 12920 ft | 265 kts | 280° |
| 2026-04-26 18:50 | 40.05528 | -111.63768 | 12920 ft | 266 kts | 280° |
| 2026-04-26 18:50 | 40.05968 | -111.66118 | 12923 ft | 266 kts | 280° |
| 2026-04-26 18:50 | 40.06408 | -111.68460 | 12923 ft | 266 kts | 280° |
| 2026-04-26 18:50 | 40.06848 | -111.70808 | 12923 ft | 266 kts | 280° |
| 2026-04-26 18:51 | 40.07286 | -111.73156 | 12920 ft | 266 kts | 280° |
| 2026-04-26 18:51 | 40.07723 | -111.75500 | 12920 ft | 266 kts | 280° |
| 2026-04-26 18:51 | 40.08160 | -111.77852 | 12876 ft | 267 kts | 280° |
| 2026-04-26 18:51 | 40.08618 | -111.80191 | 12656 ft | 266 kts | 284° |
| 2026-04-26 18:52 | 40.09252 | -111.82455 | 12404 ft | 264 kts | 286° |
| 2026-04-26 18:52 | 40.09887 | -111.84719 | 12088 ft | 266 kts | 285° |
| 2026-04-26 18:52 | 40.10517 | -111.86991 | 11826 ft | 266 kts | 285° |
| 2026-04-26 18:52 | 40.11147 | -111.89257 | 11574 ft | 265 kts | 285° |
| 2026-04-26 18:53 | 40.11773 | -111.91515 | 11317 ft | 264 kts | 285° |
| 2026-04-26 18:53 | 40.12393 | -111.93764 | 11069 ft | 263 kts | 285° |
| 2026-04-26 18:53 | 40.13013 | -111.96009 | 10959 ft | 262 kts | 285° |
| 2026-04-26 18:53 | 40.13874 | -111.98119 | 10962 ft | 269 kts | 306° |
| 2026-04-26 18:54 | 40.15374 | -111.99621 | 10964 ft | 279 kts | 333° |
| 2026-04-26 18:54 | 40.17288 | -112.00164 | 10965 ft | 286 kts | 351° |
| 2026-04-26 18:54 | 40.19275 | -112.00402 | 10963 ft | 287 kts | 352° |
| 2026-04-26 18:54 | 40.21264 | -112.00629 | 10963 ft | 287 kts | 351° |
| 2026-04-26 18:55 | 40.23250 | -112.00854 | 10957 ft | 287 kts | 351° |
| 2026-04-26 18:55 | 40.25247 | -112.01034 | 10959 ft | 289 kts | 359° |
| 2026-04-26 18:55 | 40.27197 | -112.00390 | 10967 ft | 294 kts | 28° |
| 2026-04-26 18:55 | 40.28807 | -111.98750 | 10970 ft | 293 kts | 46° |
| 2026-04-26 18:56 | 40.30090 | -111.96698 | 10779 ft | 291 kts | 56° |
| 2026-04-26 18:56 | 40.31258 | -111.94532 | 10377 ft | 289 kts | 57° |
| 2026-04-26 18:56 | 40.32401 | -111.92391 | 9898 ft | 286 kts | 57° |
| 2026-04-26 18:56 | 40.33543 | -111.90264 | 9337 ft | 283 kts | 58° |
| 2026-04-26 18:57 | 40.34562 | -111.88093 | 8714 ft | 277 kts | 76° |
| 2026-04-26 18:57 | 40.34744 | -111.87320 | 8521 ft | 271 kts | 85° |
| 2026-04-26 18:57 | 40.34538 | -111.83370 | 7521 ft | 253 kts | 118° |
| 2026-04-26 18:57 | 40.33489 | -111.81691 | 6963 ft | 233 kts | 156° |
| 2026-04-26 18:58 | 40.31996 | -111.81054 | 6569 ft | 231 kts | 167° |
| 2026-04-26 18:58 | 40.30527 | -111.80092 | 6355 ft | 241 kts | 146° |
| 2026-04-26 18:58 | 40.29207 | -111.78785 | 6055 ft | 235 kts | 145° |
| 2026-04-26 18:58 | 40.27889 | -111.77568 | 5738 ft | 229 kts | 148° |
| 2026-04-26 18:59 | 40.26598 | -111.76419 | 5448 ft | 219 kts | 148° |
| 2026-04-26 18:59 | 40.25377 | -111.75336 | 5134 ft | 205 kts | 148° |
| 2026-04-26 18:59 | 40.24243 | -111.74324 | 4905 ft | 188 kts | 147° |
| 2026-04-26 18:59 | 40.23183 | -111.73369 | 5175 ft | 194 kts | 147° |
| 2026-04-26 19:00 | 40.22017 | -111.72356 | 5804 ft | 206 kts | 149° |
| 2026-04-26 19:00 | 40.20810 | -111.71327 | 6282 ft | 212 kts | 150° |
| 2026-04-26 19:00 | 40.19554 | -111.70224 | 6691 ft | 221 kts | 148° |
| 2026-04-26 19:00 | 40.18260 | -111.69104 | 7200 ft | 226 kts | 148° |
| 2026-04-26 19:01 | 40.16901 | -111.67963 | 7660 ft | 237 kts | 147° |
| 2026-04-26 19:01 | 40.15500 | -111.66857 | 8494 ft | 232 kts | 163° |
| 2026-04-26 19:01 | 40.13885 | -111.66369 | 8878 ft | 250 kts | 184° |
| 2026-04-26 19:01 | 40.12099 | -111.66820 | 8987 ft | 278 kts | 204° |
| 2026-04-26 19:02 | 40.10201 | -111.67861 | 8992 ft | 313 kts | 205° |
| 2026-04-26 19:02 | 40.08121 | -111.69103 | 8995 ft | 343 kts | 212° |
| 2026-04-26 19:02 | 40.06292 | -111.71191 | 8922 ft | 347 kts | 229° |
| 2026-04-26 19:02 | 40.05761 | -111.71980 | 8918 ft | 338 kts | 230° |
| 2026-04-26 19:03 | 40.03356 | -111.75627 | 8917 ft | 302 kts | 230° |
| 2026-04-26 19:03 | 40.02472 | -111.76979 | 8918 ft | 289 kts | 230° |
| 2026-04-26 19:03 | 40.01191 | -111.78934 | 8916 ft | 268 kts | 230° |
| 2026-04-26 19:03 | 40.00033 | -111.80691 | 8908 ft | 246 kts | 229° |
| 2026-04-26 19:04 | 39.99006 | -111.82416 | 8906 ft | 240 kts | 237° |
| 2026-04-26 19:04 | 39.98290 | -111.84384 | 8911 ft | 242 kts | 249° |
| 2026-04-26 19:04 | 39.97935 | -111.86509 | 8914 ft | 247 kts | 261° |
| 2026-04-26 19:04 | 39.97972 | -111.88753 | 8913 ft | 249 kts | 274° |
| 2026-04-26 19:05 | 39.99356 | -111.92992 | 10250 ft | 267 kts | 307° |
| 2026-04-26 19:05 | 40.00847 | -111.94592 | 10736 ft | 278 kts | 320° |
| 2026-04-26 19:05 | 40.02444 | -111.95961 | 10873 ft | 278 kts | 321° |
| 2026-04-26 19:06 | 40.04076 | -111.97314 | 10901 ft | 278 kts | 323° |
| 2026-04-26 19:06 | 40.05715 | -111.98657 | 10915 ft | 278 kts | 322° |
| 2026-04-26 19:06 | 40.07355 | -112.00003 | 10918 ft | 278 kts | 323° |
| 2026-04-26 19:06 | 40.08989 | -112.01344 | 10948 ft | 277 kts | 323° |
| 2026-04-26 19:07 | 40.10645 | -112.02711 | 10945 ft | 278 kts | 323° |
| 2026-04-26 19:07 | 40.12250 | -112.04044 | 10943 ft | 277 kts | 322° |
| 2026-04-26 19:07 | 40.13893 | -112.05418 | 10942 ft | 277 kts | 323° |
| 2026-04-26 19:07 | 40.15518 | -112.06779 | 10949 ft | 277 kts | 322° |
| 2026-04-26 19:08 | 40.17142 | -112.08139 | 10944 ft | 277 kts | 322° |
| 2026-04-26 19:08 | 40.18839 | -112.09339 | 10938 ft | 281 kts | 337° |
| 2026-04-26 19:08 | 40.20781 | -112.09775 | 10941 ft | 288 kts | 358° |
| 2026-04-26 19:08 | 40.22762 | -112.09308 | 10936 ft | 292 kts | 16° |
| 2026-04-26 19:09 | 40.24692 | -112.08467 | 10950 ft | 293 kts | 17° |
| 2026-04-26 19:09 | 40.26632 | -112.07625 | 10946 ft | 293 kts | 17° |
| 2026-04-26 19:09 | 40.28580 | -112.06782 | 10944 ft | 296 kts | 17° |
| 2026-04-26 19:09 | 40.30528 | -112.05940 | 10942 ft | 295 kts | 17° |
| 2026-04-26 19:10 | 40.32511 | -112.05086 | 10350 ft | 307 kts | 17° |
| 2026-04-26 19:10 | 40.34544 | -112.04162 | 9579 ft | 311 kts | 25° |
| 2026-04-26 19:10 | 40.36311 | -112.02630 | 9200 ft | 297 kts | 45° |
| 2026-04-26 19:10 | 40.37574 | -112.00583 | 8997 ft | 284 kts | 62° |
| 2026-04-26 19:11 | 40.38312 | -111.98229 | 8792 ft | 276 kts | 82° |
| 2026-04-26 19:11 | 40.38537 | -111.95757 | 8593 ft | 273 kts | 92° |
| 2026-04-26 19:11 | 40.38641 | -111.93281 | 8402 ft | 271 kts | 90° |
| 2026-04-26 19:11 | 40.38746 | -111.90834 | 8202 ft | 268 kts | 89° |
| 2026-04-26 19:12 | 40.38574 | -111.88455 | 8025 ft | 258 kts | 115° |
| 2026-04-26 19:12 | 40.37696 | -111.86459 | 7783 ft | 251 kts | 138° |
| 2026-04-26 19:12 | 40.36356 | -111.85090 | 7623 ft | 243 kts | 151° |
| 2026-04-26 19:12 | 40.34964 | -111.83861 | 7337 ft | 241 kts | 150° |
| 2026-04-26 19:13 | 40.33579 | -111.82632 | 7032 ft | 238 kts | 150° |
| 2026-04-26 19:13 | 40.32219 | -111.81422 | 6732 ft | 234 kts | 148° |
| 2026-04-26 19:13 | 40.30909 | -111.80255 | 6439 ft | 220 kts | 148° |
| 2026-04-26 19:13 | 40.29680 | -111.79160 | 6159 ft | 209 kts | 149° |
| 2026-04-26 19:14 | 40.28504 | -111.78115 | 5923 ft | 198 kts | 149° |
| 2026-04-26 19:14 | 40.27404 | -111.77137 | 5630 ft | 183 kts | 149° |
| 2026-04-26 19:14 | 40.26396 | -111.76240 | 5385 ft | 167 kts | 149° |
| 2026-04-26 19:14 | 40.25773 | -111.75686 | 5251 ft | 159 kts | 149° |
| 2026-04-26 19:15 | 40.24629 | -111.74662 | 4976 ft | 140 kts | 152° |
| 2026-04-26 19:15 | 40.23825 | -111.73945 | 4750 ft | 138 kts | 152° |
| 2026-04-26 19:15 | 40.23021 | -111.73242 | 4554 ft | 140 kts | 148° |
| 2026-04-26 19:15 | 40.22287 | -111.72596 | 4508 ft | 102 kts | 146° |
| 2026-04-26 19:16 | 40.21888 | -111.72241 | 4501 ft | 55 kts | 146° |
| 2026-04-26 19:16 | 40.21603 | -111.71988 | 4505 ft | 45 kts | 146° |
| 2026-04-26 19:16 | 40.21366 | -111.71780 | 4502 ft | 36 kts | 144° |
| 2026-04-26 19:16 | 40.21191 | -111.71622 | 4499 ft | 24 kts | 144° |
| 2026-04-26 19:17 | 40.21101 | -111.71538 | 4499 ft | 10 kts | 142° |
| 2026-04-26 19:17 | 40.21114 | -111.71450 | 4497 ft | 11 kts | 54° |
| 2026-04-26 19:17 | 40.21150 | -111.71390 | 4497 ft | 6 kts | 32° |
| 2026-04-26 19:17 | 40.21179 | -111.71393 | 4498 ft | 4 kts | 338° |
| 2026-04-26 19:18 | 40.21203 | -111.71413 | 4498 ft | 4 kts | 327° |
| 2026-04-26 19:18 | 40.21227 | -111.71415 | 4499 ft | 4 kts | 13° |
| 2026-04-26 19:18 | 40.21264 | -111.71390 | 4502 ft | 8 kts | 347° |
| 2026-04-26 19:18 | 40.21316 | -111.71431 | 4499 ft | 8 kts | 326° |
| 2026-04-26 19:19 | 40.21356 | -111.71438 | 4499 ft | 6 kts | 33° |
| 2026-04-26 19:19 | 40.21380 | -111.71401 | 4501 ft | 3 kts | 54° |
| 2026-04-26 19:19 | 40.21390 | -111.71383 | 4500 ft | 2 kts | 55° |
| 2026-04-26 19:19 | 40.21398 | -111.71369 | 4502 ft | 2 kts | 55° |
| 2026-04-26 19:20 | 40.21401 | -111.71362 | 4500 ft | 0 kts | 56° |
| 2026-04-26 19:20 | 40.21402 | -111.71361 | 4500 ft | 0 kts | 56° |